logo
Search for airport 
image banner adimage banner adimage banner ad
image banner ad

MMMV - Monclova Aeropuerto Internacional Venustiano Carranza

Located in Monclova, Mexico

ICAO - MMMV, IATA - LOV

Data provided by Airmate  

General information

Coordinates: N26°57'20" W101°28'16"
Elevation is 1864 feet MSL.
 
View others Airports in Coahuila

Operational data

Special qualification required
Current time UTC:
Current local time:
Weather
TAF: TAF MMMV 180536Z 1806/1906 10005KT P6SM SCT100 FM181000 24005KT P6SM SCT200 FM182100 27010KT P6SM SCT020CB FM190000 20005KT P6SM SCT200
View NOTAMs / SUP AIP / TFR affecting this airport [VIEW]
Communications frequencies: [VIEW]

Runways:

RWY identifierQFULength (ft)Width (ft)SurfaceLDA (ft)
06L73°478366ASP
24R253°478366ASP
06R73°6890148ASP
24L253°6890148ASP

Airport contact information

Address: Monclova Mexico

Satellite view of MMMV